CheckWX is a tool to help pilots better visualize weather data.  It is not intended as a substitute for an official pre-flight weather briefing.

17:24:48 UTC

MHLC METAR
Goloson International Airport
La Ceiba, Honduras
Current

25 mins ago

MHLC 181700Z 08005KT 9999 FEW025 BKN250 31/22 Q1014 A2995 NOSIG
Observed
Jul-18 @ 17:00 UTC
Wind
  • 080° at 5 KTS
Visibility
10,000+ meters
Flight Rules
VFR
Cloud Levels
  • Few at 2,500' AGL
  • Broken at 25,000' AGL
Temperature
31°C / 88°F
Dewpoint
22°C / 72°F
Heat Index
35°C / 95°F
Humidity
59%
Altimeter
29.94" Hg
Pressure
1013.92 hPa
Previous

1 hour ago

MHLC 181600Z 35004KT 9999 FEW025 BKN250 30/23 Q1015 A2997 NOSIG
Observed
Jul-18 @ 16:00 UTC
Wind
  • 350° at 4 KTS
Visibility
10,000+ meters
Flight Rules
VFR
Cloud Levels
  • Few at 2,500' AGL
  • Broken at 25,000' AGL
Temperature
30°C / 86°F
Dewpoint
23°C / 73°F
Heat Index
34°C / 93°F
Humidity
66%
Altimeter
29.97" Hg
Pressure
1014.92 hPa
Previous

2 hours ago

MHLC 181500Z 19003KT 9999 FEW025 BKN250 29/23 Q1015 A2997 NOSIG
Observed
Jul-18 @ 15:00 UTC
Wind
  • 190° at 3 KTS
Visibility
10,000+ meters
Flight Rules
VFR
Cloud Levels
  • Few at 2,500' AGL
  • Broken at 25,000' AGL
Temperature
29°C / 84°F
Dewpoint
23°C / 73°F
Heat Index
32°C / 90°F
Humidity
70%
Altimeter
29.97" Hg
Pressure
1014.92 hPa